sensor_id;sensor_type;location;lat;lon;timestamp;temperature;humidity
1337;DHT22;662;48.814;9.318;2023-03-14T00:01:30;11.90;81.10
1337;DHT22;662;48.814;9.318;2023-03-14T00:03:56;11.90;81.00
1337;DHT22;662;48.814;9.318;2023-03-14T00:06:22;11.90;81.20
1337;DHT22;662;48.814;9.318;2023-03-14T00:08:48;11.90;81.20
1337;DHT22;662;48.814;9.318;2023-03-14T00:11:19;11.90;81.00
1337;DHT22;662;48.814;9.318;2023-03-14T00:13:50;11.90;80.80
1337;DHT22;662;48.814;9.318;2023-03-14T00:16:16;11.90;80.90
1337;DHT22;662;48.814;9.318;2023-03-14T00:18:41;11.90;81.20
1337;DHT22;662;48.814;9.318;2023-03-14T00:21:08;11.90;81.30
1337;DHT22;662;48.814;9.318;2023-03-14T00:23:36;11.90;81.20
1337;DHT22;662;48.814;9.318;2023-03-14T00:26:07;11.90;81.10
1337;DHT22;662;48.814;9.318;2023-03-14T00:28:33;12.00;81.10
1337;DHT22;662;48.814;9.318;2023-03-14T00:31:05;12.00;80.90
1337;DHT22;662;48.814;9.318;2023-03-14T00:33:31;12.00;80.80
1337;DHT22;662;48.814;9.318;2023-03-14T00:36:00;12.00;80.50
1337;DHT22;662;48.814;9.318;2023-03-14T00:38:26;12.00;80.20
1337;DHT22;662;48.814;9.318;2023-03-14T00:40:52;12.10;79.90
1337;DHT22;662;48.814;9.318;2023-03-14T00:43:19;12.10;79.70
1337;DHT22;662;48.814;9.318;2023-03-14T00:45:47;12.10;79.60
1337;DHT22;662;48.814;9.318;2023-03-14T00:48:13;12.10;79.40
1337;DHT22;662;48.814;9.318;2023-03-14T00:50:39;12.10;79.40
1337;DHT22;662;48.814;9.318;2023-03-14T00:53:05;12.10;79.20
1337;DHT22;662;48.814;9.318;2023-03-14T00:55:30;12.10;78.90
1337;DHT22;662;48.814;9.318;2023-03-14T00:57:56;12.10;78.60
1337;DHT22;662;48.814;9.318;2023-03-14T01:00:22;12.10;78.40
1337;DHT22;662;48.814;9.318;2023-03-14T01:02:49;12.20;78.10
1337;DHT22;662;48.814;9.318;2023-03-14T01:05:14;12.20;77.80
1337;DHT22;662;48.814;9.318;2023-03-14T01:07:40;12.30;77.60
1337;DHT22;662;48.814;9.318;2023-03-14T01:10:06;12.30;77.20
1337;DHT22;662;48.814;9.318;2023-03-14T01:12:32;12.30;77.10
1337;DHT22;662;48.814;9.318;2023-03-14T01:14:58;12.30;77.00
1337;DHT22;662;48.814;9.318;2023-03-14T01:17:23;12.30;77.00
1337;DHT22;662;48.814;9.318;2023-03-14T01:19:49;12.30;76.80
1337;DHT22;662;48.814;9.318;2023-03-14T01:22:15;12.30;76.90
1337;DHT22;662;48.814;9.318;2023-03-14T01:24:40;12.30;76.30
1337;DHT22;662;48.814;9.318;2023-03-14T01:27:06;12.40;75.90
1337;DHT22;662;48.814;9.318;2023-03-14T01:29:32;12.40;75.70
1337;DHT22;662;48.814;9.318;2023-03-14T01:31:57;12.30;76.00
1337;DHT22;662;48.814;9.318;2023-03-14T01:34:23;12.30;75.70
1337;DHT22;662;48.814;9.318;2023-03-14T01:36:49;12.40;75.10
1337;DHT22;662;48.814;9.318;2023-03-14T01:39:14;12.40;74.40
1337;DHT22;662;48.814;9.318;2023-03-14T01:41:40;12.50;74.10
1337;DHT22;662;48.814;9.318;2023-03-14T01:44:10;12.50;73.60
1337;DHT22;662;48.814;9.318;2023-03-14T01:46:40;12.50;73.40
1337;DHT22;662;48.814;9.318;2023-03-14T01:49:11;12.50;74.10
1337;DHT22;662;48.814;9.318;2023-03-14T01:51:42;12.50;73.20
1337;DHT22;662;48.814;9.318;2023-03-14T01:54:33;12.50;73.20
1337;DHT22;662;48.814;9.318;2023-03-14T01:57:33;12.50;73.10
1337;DHT22;662;48.814;9.318;2023-03-14T02:00:12;12.50;73.00
1337;DHT22;662;48.814;9.318;2023-03-14T02:02:41;12.50;73.10
1337;DHT22;662;48.814;9.318;2023-03-14T02:05:09;12.50;73.00
1337;DHT22;662;48.814;9.318;2023-03-14T02:07:40;12.50;72.80
1337;DHT22;662;48.814;9.318;2023-03-14T02:10:10;12.50;72.60
1337;DHT22;662;48.814;9.318;2023-03-14T02:12:36;12.50;72.30
1337;DHT22;662;48.814;9.318;2023-03-14T02:15:03;12.40;71.80
1337;DHT22;662;48.814;9.318;2023-03-14T02:17:28;12.50;71.40
1337;DHT22;662;48.814;9.318;2023-03-14T02:20:33;12.50;71.70
1337;DHT22;662;48.814;9.318;2023-03-14T02:23:00;12.40;71.80
1337;DHT22;662;48.814;9.318;2023-03-14T02:25:46;12.40;71.70
1337;DHT22;662;48.814;9.318;2023-03-14T02:28:13;12.50;71.90
1337;DHT22;662;48.814;9.318;2023-03-14T02:30:39;12.40;71.60
1337;DHT22;662;48.814;9.318;2023-03-14T02:33:11;12.40;71.70
1337;DHT22;662;48.814;9.318;2023-03-14T02:35:42;12.40;71.70
1337;DHT22;662;48.814;9.318;2023-03-14T02:38:46;12.40;71.80
1337;DHT22;662;48.814;9.318;2023-03-14T02:41:13;12.40;71.70
1337;DHT22;662;48.814;9.318;2023-03-14T02:43:38;12.30;71.50
1337;DHT22;662;48.814;9.318;2023-03-14T02:46:05;12.30;71.40
1337;DHT22;662;48.814;9.318;2023-03-14T02:48:53;12.30;71.30
1337;DHT22;662;48.814;9.318;2023-03-14T02:51:21;12.30;71.30
1337;DHT22;662;48.814;9.318;2023-03-14T02:53:47;12.30;71.00
1337;DHT22;662;48.814;9.318;2023-03-14T02:56:13;12.30;71.00
1337;DHT22;662;48.814;9.318;2023-03-14T02:58:39;12.30;70.70
1337;DHT22;662;48.814;9.318;2023-03-14T03:01:05;12.40;70.80
1337;DHT22;662;48.814;9.318;2023-03-14T03:03:30;12.30;70.60
1337;DHT22;662;48.814;9.318;2023-03-14T03:05:56;12.30;70.60
1337;DHT22;662;48.814;9.318;2023-03-14T03:08:24;12.30;70.80
1337;DHT22;662;48.814;9.318;2023-03-14T03:10:51;12.40;70.60
1337;DHT22;662;48.814;9.318;2023-03-14T03:13:18;12.30;70.40
1337;DHT22;662;48.814;9.318;2023-03-14T03:15:44;12.30;70.30
1337;DHT22;662;48.814;9.318;2023-03-14T03:18:09;12.40;70.20
1337;DHT22;662;48.814;9.318;2023-03-14T03:20:35;12.30;70.00
1337;DHT22;662;48.814;9.318;2023-03-14T03:23:01;12.30;70.10
1337;DHT22;662;48.814;9.318;2023-03-14T03:25:27;12.40;70.20
1337;DHT22;662;48.814;9.318;2023-03-14T03:27:53;12.30;70.20
1337;DHT22;662;48.814;9.318;2023-03-14T03:30:19;12.30;70.10
1337;DHT22;662;48.814;9.318;2023-03-14T03:32:45;12.30;70.20
1337;DHT22;662;48.814;9.318;2023-03-14T03:35:11;12.30;70.10
1337;DHT22;662;48.814;9.318;2023-03-14T03:37:37;12.30;70.20
1337;DHT22;662;48.814;9.318;2023-03-14T03:40:04;12.30;69.80
1337;DHT22;662;48.814;9.318;2023-03-14T03:42:31;12.20;69.50
1337;DHT22;662;48.814;9.318;2023-03-14T03:44:57;12.20;69.40
1337;DHT22;662;48.814;9.318;2023-03-14T03:47:22;12.20;69.20
1337;DHT22;662;48.814;9.318;2023-03-14T03:49:48;12.10;69.20
1337;DHT22;662;48.814;9.318;2023-03-14T03:52:14;12.10;69.00
1337;DHT22;662;48.814;9.318;2023-03-14T03:54:39;12.10;68.80
1337;DHT22;662;48.814;9.318;2023-03-14T03:57:05;12.10;68.70
1337;DHT22;662;48.814;9.318;2023-03-14T03:59:30;12.10;68.60
1337;DHT22;662;48.814;9.318;2023-03-14T04:01:56;12.10;68.40
1337;DHT22;662;48.814;9.318;2023-03-14T04:04:22;12.10;68.10
1337;DHT22;662;48.814;9.318;2023-03-14T04:06:47;12.10;67.50
1337;DHT22;662;48.814;9.318;2023-03-14T04:09:13;12.10;67.30
1337;DHT22;662;48.814;9.318;2023-03-14T04:11:39;12.10;67.30
1337;DHT22;662;48.814;9.318;2023-03-14T04:14:05;12.10;66.80
1337;DHT22;662;48.814;9.318;2023-03-14T04:16:30;12.10;66.60
1337;DHT22;662;48.814;9.318;2023-03-14T04:18:59;12.10;67.20
1337;DHT22;662;48.814;9.318;2023-03-14T04:21:25;12.10;66.50
1337;DHT22;662;48.814;9.318;2023-03-14T04:23:50;12.10;66.70
1337;DHT22;662;48.814;9.318;2023-03-14T04:26:16;12.10;66.10
1337;DHT22;662;48.814;9.318;2023-03-14T04:28:42;12.10;65.60
1337;DHT22;662;48.814;9.318;2023-03-14T04:31:13;12.10;65.60
1337;DHT22;662;48.814;9.318;2023-03-14T04:33:39;12.10;65.70
1337;DHT22;662;48.814;9.318;2023-03-14T04:36:06;12.10;65.60
1337;DHT22;662;48.814;9.318;2023-03-14T04:38:32;12.00;65.10
1337;DHT22;662;48.814;9.318;2023-03-14T04:40:58;12.00;65.00
1337;DHT22;662;48.814;9.318;2023-03-14T04:43:24;12.00;64.90
1337;DHT22;662;48.814;9.318;2023-03-14T04:45:54;12.00;64.50
1337;DHT22;662;48.814;9.318;2023-03-14T04:48:20;12.00;64.30
1337;DHT22;662;48.814;9.318;2023-03-14T04:50:47;12.00;64.10
1337;DHT22;662;48.814;9.318;2023-03-14T04:53:13;12.00;64.00
1337;DHT22;662;48.814;9.318;2023-03-14T04:55:39;12.00;63.90
1337;DHT22;662;48.814;9.318;2023-03-14T04:58:04;12.00;63.90
1337;DHT22;662;48.814;9.318;2023-03-14T05:00:30;12.00;63.80
1337;DHT22;662;48.814;9.318;2023-03-14T05:02:56;12.00;63.40
1337;DHT22;662;48.814;9.318;2023-03-14T05:05:21;12.00;63.50
1337;DHT22;662;48.814;9.318;2023-03-14T05:07:47;11.90;63.50
1337;DHT22;662;48.814;9.318;2023-03-14T05:10:13;11.90;63.40
1337;DHT22;662;48.814;9.318;2023-03-14T05:12:38;11.90;63.60
1337;DHT22;662;48.814;9.318;2023-03-14T05:15:04;11.90;63.60
1337;DHT22;662;48.814;9.318;2023-03-14T05:17:32;11.90;63.70
1337;DHT22;662;48.814;9.318;2023-03-14T05:19:57;11.80;63.50
1337;DHT22;662;48.814;9.318;2023-03-14T05:22:23;11.80;63.50
1337;DHT22;662;48.814;9.318;2023-03-14T05:24:51;11.80;63.60
1337;DHT22;662;48.814;9.318;2023-03-14T05:27:18;11.80;63.50
1337;DHT22;662;48.814;9.318;2023-03-14T05:29:44;11.80;63.60
1337;DHT22;662;48.814;9.318;2023-03-14T05:32:10;11.80;63.10
1337;DHT22;662;48.814;9.318;2023-03-14T05:34:35;11.80;63.00
1337;DHT22;662;48.814;9.318;2023-03-14T05:37:01;11.80;62.60
1337;DHT22;662;48.814;9.318;2023-03-14T05:39:26;11.80;62.60
1337;DHT22;662;48.814;9.318;2023-03-14T05:41:52;11.80;62.10
1337;DHT22;662;48.814;9.318;2023-03-14T05:44:19;11.80;62.10
1337;DHT22;662;48.814;9.318;2023-03-14T05:46:44;11.80;62.20
1337;DHT22;662;48.814;9.318;2023-03-14T05:49:10;11.70;62.10
1337;DHT22;662;48.814;9.318;2023-03-14T05:51:36;11.80;62.20
1337;DHT22;662;48.814;9.318;2023-03-14T05:54:01;11.70;62.00
1337;DHT22;662;48.814;9.318;2023-03-14T05:56:27;11.70;62.10
1337;DHT22;662;48.814;9.318;2023-03-14T05:58:52;11.70;61.90
1337;DHT22;662;48.814;9.318;2023-03-14T06:01:18;11.70;61.80
1337;DHT22;662;48.814;9.318;2023-03-14T06:03:44;11.80;61.90
1337;DHT22;662;48.814;9.318;2023-03-14T06:06:10;11.80;61.80
1337;DHT22;662;48.814;9.318;2023-03-14T06:08:36;11.80;61.40
1337;DHT22;662;48.814;9.318;2023-03-14T06:11:03;11.80;61.50
1337;DHT22;662;48.814;9.318;2023-03-14T06:13:28;11.80;61.30
1337;DHT22;662;48.814;9.318;2023-03-14T06:15:54;11.90;61.20
1337;DHT22;662;48.814;9.318;2023-03-14T06:18:20;11.90;61.20
1337;DHT22;662;48.814;9.318;2023-03-14T06:20:45;11.90;62.00
1337;DHT22;662;48.814;9.318;2023-03-14T06:23:11;11.90;61.20
1337;DHT22;662;48.814;9.318;2023-03-14T06:25:38;11.90;61.20
1337;DHT22;662;48.814;9.318;2023-03-14T06:28:03;11.90;60.90
1337;DHT22;662;48.814;9.318;2023-03-14T06:30:29;11.90;60.70
1337;DHT22;662;48.814;9.318;2023-03-14T06:32:55;11.90;60.70
1337;DHT22;662;48.814;9.318;2023-03-14T06:35:21;11.90;61.00
1337;DHT22;662;48.814;9.318;2023-03-14T06:37:47;11.90;61.00
1337;DHT22;662;48.814;9.318;2023-03-14T06:40:13;11.90;60.90
1337;DHT22;662;48.814;9.318;2023-03-14T06:42:44;11.90;61.00
1337;DHT22;662;48.814;9.318;2023-03-14T06:45:10;11.90;61.00
1337;DHT22;662;48.814;9.318;2023-03-14T06:47:36;11.90;60.80
1337;DHT22;662;48.814;9.318;2023-03-14T06:50:01;11.90;60.80
1337;DHT22;662;48.814;9.318;2023-03-14T06:52:27;11.90;60.90
1337;DHT22;662;48.814;9.318;2023-03-14T06:54:53;11.90;60.80
1337;DHT22;662;48.814;9.318;2023-03-14T06:57:18;11.90;60.40
1337;DHT22;662;48.814;9.318;2023-03-14T06:59:44;11.90;60.50
1337;DHT22;662;48.814;9.318;2023-03-14T07:02:13;11.90;60.20
1337;DHT22;662;48.814;9.318;2023-03-14T07:04:39;12.00;60.10
1337;DHT22;662;48.814;9.318;2023-03-14T07:07:05;12.00;60.30
1337;DHT22;662;48.814;9.318;2023-03-14T07:09:32;12.10;60.30
1337;DHT22;662;48.814;9.318;2023-03-14T07:11:57;12.10;60.40
1337;DHT22;662;48.814;9.318;2023-03-14T07:14:23;12.20;60.10
1337;DHT22;662;48.814;9.318;2023-03-14T07:16:49;12.30;59.70
1337;DHT22;662;48.814;9.318;2023-03-14T07:19:14;12.30;59.80
1337;DHT22;662;48.814;9.318;2023-03-14T07:21:40;12.40;59.70
1337;DHT22;662;48.814;9.318;2023-03-14T07:24:06;12.40;59.60
1337;DHT22;662;48.814;9.318;2023-03-14T07:26:31;12.50;59.40
1337;DHT22;662;48.814;9.318;2023-03-14T07:28:57;12.60;59.40
1337;DHT22;662;48.814;9.318;2023-03-14T07:31:23;12.70;59.30
1337;DHT22;662;48.814;9.318;2023-03-14T07:33:49;12.70;58.70
1337;DHT22;662;48.814;9.318;2023-03-14T07:36:14;12.80;59.00
1337;DHT22;662;48.814;9.318;2023-03-14T07:38:40;12.90;58.60
1337;DHT22;662;48.814;9.318;2023-03-14T07:41:06;13.00;58.50
1337;DHT22;662;48.814;9.318;2023-03-14T07:43:32;13.00;58.40
1337;DHT22;662;48.814;9.318;2023-03-14T07:45:58;13.10;58.10
1337;DHT22;662;48.814;9.318;2023-03-14T07:48:24;13.20;58.20
1337;DHT22;662;48.814;9.318;2023-03-14T07:50:52;13.30;58.10
1337;DHT22;662;48.814;9.318;2023-03-14T07:53:18;13.30;57.50
1337;DHT22;662;48.814;9.318;2023-03-14T07:55:45;13.40;57.70
1337;DHT22;662;48.814;9.318;2023-03-14T07:58:11;13.50;57.50
1337;DHT22;662;48.814;9.318;2023-03-14T08:00:37;13.60;57.40
1337;DHT22;662;48.814;9.318;2023-03-14T08:03:03;13.60;57.10
1337;DHT22;662;48.814;9.318;2023-03-14T08:05:29;13.70;56.90
1337;DHT22;662;48.814;9.318;2023-03-14T08:07:54;13.80;56.40
1337;DHT22;662;48.814;9.318;2023-03-14T08:10:20;13.80;56.20
1337;DHT22;662;48.814;9.318;2023-03-14T08:12:46;13.90;56.30
1337;DHT22;662;48.814;9.318;2023-03-14T08:15:12;13.90;56.00
1337;DHT22;662;48.814;9.318;2023-03-14T08:17:38;14.00;55.90
1337;DHT22;662;48.814;9.318;2023-03-14T08:20:04;14.10;55.20
1337;DHT22;662;48.814;9.318;2023-03-14T08:22:34;14.10;55.20
1337;DHT22;662;48.814;9.318;2023-03-14T08:24:59;14.20;55.00
1337;DHT22;662;48.814;9.318;2023-03-14T08:27:25;14.30;54.80
1337;DHT22;662;48.814;9.318;2023-03-14T08:29:50;14.40;55.30
1337;DHT22;662;48.814;9.318;2023-03-14T08:32:16;14.50;54.20
1337;DHT22;662;48.814;9.318;2023-03-14T08:34:41;14.50;54.00
1337;DHT22;662;48.814;9.318;2023-03-14T08:37:07;14.50;53.40
1337;DHT22;662;48.814;9.318;2023-03-14T08:39:33;14.60;53.30
1337;DHT22;662;48.814;9.318;2023-03-14T08:41:58;14.80;53.80
1337;DHT22;662;48.814;9.318;2023-03-14T08:44:24;14.90;53.60
1337;DHT22;662;48.814;9.318;2023-03-14T08:46:50;15.00;53.30
1337;DHT22;662;48.814;9.318;2023-03-14T08:49:15;15.10;52.50
1337;DHT22;662;48.814;9.318;2023-03-14T08:51:41;15.30;52.40
1337;DHT22;662;48.814;9.318;2023-03-14T08:54:10;15.50;51.70
1337;DHT22;662;48.814;9.318;2023-03-14T08:56:36;16.00;50.40
1337;DHT22;662;48.814;9.318;2023-03-14T08:59:03;16.30;49.50
1337;DHT22;662;48.814;9.318;2023-03-14T09:01:29;16.40;49.00
1337;DHT22;662;48.814;9.318;2023-03-14T09:03:55;16.30;48.60
1337;DHT22;662;48.814;9.318;2023-03-14T09:06:21;16.20;48.80
1337;DHT22;662;48.814;9.318;2023-03-14T09:08:47;16.50;48.50
1337;DHT22;662;48.814;9.318;2023-03-14T09:11:13;16.60;47.90
1337;DHT22;662;48.814;9.318;2023-03-14T09:13:40;16.30;48.40
1337;DHT22;662;48.814;9.318;2023-03-14T09:16:06;16.20;48.70
1337;DHT22;662;48.814;9.318;2023-03-14T09:18:32;16.00;48.80
1337;DHT22;662;48.814;9.318;2023-03-14T09:20:58;16.00;49.30
1337;DHT22;662;48.814;9.318;2023-03-14T09:23:23;16.70;48.80
1337;DHT22;662;48.814;9.318;2023-03-14T09:25:53;17.30;47.80
1337;DHT22;662;48.814;9.318;2023-03-14T09:28:19;17.20;47.80
1337;DHT22;662;48.814;9.318;2023-03-14T09:30:44;17.00;48.10
1337;DHT22;662;48.814;9.318;2023-03-14T09:33:10;16.50;48.50
1337;DHT22;662;48.814;9.318;2023-03-14T09:35:36;16.40;49.50
1337;DHT22;662;48.814;9.318;2023-03-14T09:38:01;16.50;49.50
1337;DHT22;662;48.814;9.318;2023-03-14T09:40:32;16.60;49.70
1337;DHT22;662;48.814;9.318;2023-03-14T09:42:59;16.60;49.60
1337;DHT22;662;48.814;9.318;2023-03-14T09:45:31;16.40;49.60
1337;DHT22;662;48.814;9.318;2023-03-14T09:47:59;16.60;49.80
1337;DHT22;662;48.814;9.318;2023-03-14T09:50:30;16.80;49.50
1337;DHT22;662;48.814;9.318;2023-03-14T09:53:02;16.80;49.00
1337;DHT22;662;48.814;9.318;2023-03-14T09:55:28;17.10;48.60
1337;DHT22;662;48.814;9.318;2023-03-14T09:58:00;16.80;48.30
1337;DHT22;662;48.814;9.318;2023-03-14T10:00:29;16.60;49.00
1337;DHT22;662;48.814;9.318;2023-03-14T10:05:43;16.20;49.90
1337;DHT22;662;48.814;9.318;2023-03-14T10:08:12;15.90;50.10
1337;DHT22;662;48.814;9.318;2023-03-14T10:10:38;15.70;50.20
1337;DHT22;662;48.814;9.318;2023-03-14T10:16:04;15.50;50.60
1337;DHT22;662;48.814;9.318;2023-03-14T10:18:31;15.50;50.90
1337;DHT22;662;48.814;9.318;2023-03-14T10:21:30;15.50;50.70
1337;DHT22;662;48.814;9.318;2023-03-14T10:24:18;15.60;50.80
1337;DHT22;662;48.814;9.318;2023-03-14T10:26:48;15.60;51.00
1337;DHT22;662;48.814;9.318;2023-03-14T10:29:13;15.60;50.80
1337;DHT22;662;48.814;9.318;2023-03-14T10:34:44;15.70;51.40
1337;DHT22;662;48.814;9.318;2023-03-14T10:37:24;15.90;51.30
1337;DHT22;662;48.814;9.318;2023-03-14T10:40:02;16.00;51.10
1337;DHT22;662;48.814;9.318;2023-03-14T10:42:33;16.20;50.40
1337;DHT22;662;48.814;9.318;2023-03-14T10:47:50;16.20;50.10
1337;DHT22;662;48.814;9.318;2023-03-14T10:50:28;16.10;50.00
1337;DHT22;662;48.814;9.318;2023-03-14T10:52:56;16.00;50.10
1337;DHT22;662;48.814;9.318;2023-03-14T10:55:24;15.90;49.80
1337;DHT22;662;48.814;9.318;2023-03-14T10:57:51;15.90;49.60
1337;DHT22;662;48.814;9.318;2023-03-14T11:00:20;15.80;49.60
1337;DHT22;662;48.814;9.318;2023-03-14T11:03:08;15.80;49.90
1337;DHT22;662;48.814;9.318;2023-03-14T11:05:56;15.70;50.00
1337;DHT22;662;48.814;9.318;2023-03-14T11:11:38;15.50;50.60
1337;DHT22;662;48.814;9.318;2023-03-14T11:14:21;15.40;51.00
1337;DHT22;662;48.814;9.318;2023-03-14T11:22:25;15.10;51.50
1337;DHT22;662;48.814;9.318;2023-03-14T11:25:18;15.10;51.60
1337;DHT22;662;48.814;9.318;2023-03-14T11:28:01;15.00;52.30
1337;DHT22;662;48.814;9.318;2023-03-14T11:30:49;15.00;52.50
1337;DHT22;662;48.814;9.318;2023-03-14T11:33:19;14.80;53.10
1337;DHT22;662;48.814;9.318;2023-03-14T11:36:08;14.70;54.20
1337;DHT22;662;48.814;9.318;2023-03-14T11:38:43;14.60;55.30
1337;DHT22;662;48.814;9.318;2023-03-14T11:41:21;14.40;55.50
1337;DHT22;662;48.814;9.318;2023-03-14T11:43:52;14.20;55.90
1337;DHT22;662;48.814;9.318;2023-03-14T11:46:36;14.10;56.20
1337;DHT22;662;48.814;9.318;2023-03-14T11:49:05;14.00;56.80
1337;DHT22;662;48.814;9.318;2023-03-14T11:51:38;13.90;57.10
1337;DHT22;662;48.814;9.318;2023-03-14T11:54:20;13.90;56.40
1337;DHT22;662;48.814;9.318;2023-03-14T11:57:02;13.80;56.70
1337;DHT22;662;48.814;9.318;2023-03-14T12:05:11;13.80;57.20
1337;DHT22;662;48.814;9.318;2023-03-14T12:08:03;13.80;57.40
1337;DHT22;662;48.814;9.318;2023-03-14T12:11:00;13.80;57.70
1337;DHT22;662;48.814;9.318;2023-03-14T12:13:33;13.70;57.70
1337;DHT22;662;48.814;9.318;2023-03-14T12:16:02;13.60;58.00
1337;DHT22;662;48.814;9.318;2023-03-14T12:18:35;13.60;57.50
1337;DHT22;662;48.814;9.318;2023-03-14T12:21:08;13.60;57.80
1337;DHT22;662;48.814;9.318;2023-03-14T12:23:43;13.70;57.70
1337;DHT22;662;48.814;9.318;2023-03-14T12:28:42;13.70;57.40
1337;DHT22;662;48.814;9.318;2023-03-14T12:34:27;13.70;58.50
1337;DHT22;662;48.814;9.318;2023-03-14T12:37:02;13.70;58.30
1337;DHT22;662;48.814;9.318;2023-03-14T12:42:43;13.80;57.50
1337;DHT22;662;48.814;9.318;2023-03-14T12:45:32;14.10;56.40
1337;DHT22;662;48.814;9.318;2023-03-14T12:48:23;14.60;55.60
1337;DHT22;662;48.814;9.318;2023-03-14T12:51:04;15.30;53.10
1337;DHT22;662;48.814;9.318;2023-03-14T12:59:14;15.30;50.70
1337;DHT22;662;48.814;9.318;2023-03-14T13:04:47;16.50;46.80
1337;DHT22;662;48.814;9.318;2023-03-14T13:10:02;17.10;43.50
1337;DHT22;662;48.814;9.318;2023-03-14T13:12:34;17.20;43.20
1337;DHT22;662;48.814;9.318;2023-03-14T13:15:13;17.40;41.80
1337;DHT22;662;48.814;9.318;2023-03-14T13:17:40;17.50;40.90
1337;DHT22;662;48.814;9.318;2023-03-14T13:20:32;17.40;39.90
1337;DHT22;662;48.814;9.318;2023-03-14T13:22:59;17.00;39.30
1337;DHT22;662;48.814;9.318;2023-03-14T13:25:29;16.70;40.00
1337;DHT22;662;48.814;9.318;2023-03-14T13:27:55;16.40;41.00
1337;DHT22;662;48.814;9.318;2023-03-14T13:30:24;16.30;40.90
1337;DHT22;662;48.814;9.318;2023-03-14T13:32:51;16.10;40.50
1337;DHT22;662;48.814;9.318;2023-03-14T13:35:24;16.10;40.40
1337;DHT22;662;48.814;9.318;2023-03-14T13:37:59;16.00;38.00
1337;DHT22;662;48.814;9.318;2023-03-14T13:40:32;15.90;38.00
1337;DHT22;662;48.814;9.318;2023-03-14T13:43:05;15.80;38.60
1337;DHT22;662;48.814;9.318;2023-03-14T13:45:40;15.50;38.10
1337;DHT22;662;48.814;9.318;2023-03-14T13:48:09;15.20;38.90
1337;DHT22;662;48.814;9.318;2023-03-14T13:50:36;15.20;39.80
1337;DHT22;662;48.814;9.318;2023-03-14T13:53:01;15.10;39.60
1337;DHT22;662;48.814;9.318;2023-03-14T13:55:29;15.00;39.60
1337;DHT22;662;48.814;9.318;2023-03-14T13:57:55;14.90;38.80
1337;DHT22;662;48.814;9.318;2023-03-14T14:02:48;15.10;38.90
1337;DHT22;662;48.814;9.318;2023-03-14T14:05:14;15.10;40.00
1337;DHT22;662;48.814;9.318;2023-03-14T14:07:40;15.00;38.90
1337;DHT22;662;48.814;9.318;2023-03-14T14:10:11;14.80;38.60
1337;DHT22;662;48.814;9.318;2023-03-14T14:12:55;14.50;37.80
1337;DHT22;662;48.814;9.318;2023-03-14T14:15:28;14.20;37.90
1337;DHT22;662;48.814;9.318;2023-03-14T14:18:04;14.00;38.00
1337;DHT22;662;48.814;9.318;2023-03-14T14:20:49;13.70;37.40
1337;DHT22;662;48.814;9.318;2023-03-14T14:23:36;13.50;37.60
1337;DHT22;662;48.814;9.318;2023-03-14T14:26:05;13.30;37.80
1337;DHT22;662;48.814;9.318;2023-03-14T14:28:33;13.10;37.60
1337;DHT22;662;48.814;9.318;2023-03-14T14:33:45;12.90;37.70
1337;DHT22;662;48.814;9.318;2023-03-14T14:36:30;12.80;37.90
1337;DHT22;662;48.814;9.318;2023-03-14T14:39:04;12.80;38.20
1337;DHT22;662;48.814;9.318;2023-03-14T14:41:33;12.70;38.70
1337;DHT22;662;48.814;9.318;2023-03-14T14:44:00;12.70;38.80
1337;DHT22;662;48.814;9.318;2023-03-14T14:46:28;12.60;38.60
1337;DHT22;662;48.814;9.318;2023-03-14T14:48:57;12.60;39.30
1337;DHT22;662;48.814;9.318;2023-03-14T14:51:26;12.60;39.20
1337;DHT22;662;48.814;9.318;2023-03-14T14:54:10;12.60;39.60
1337;DHT22;662;48.814;9.318;2023-03-14T14:56:37;12.50;39.40
1337;DHT22;662;48.814;9.318;2023-03-14T14:59:04;12.50;39.40
1337;DHT22;662;48.814;9.318;2023-03-14T15:01:37;12.50;39.60
1337;DHT22;662;48.814;9.318;2023-03-14T15:04:09;12.40;39.80
1337;DHT22;662;48.814;9.318;2023-03-14T15:06:36;12.40;39.70
1337;DHT22;662;48.814;9.318;2023-03-14T15:09:02;12.40;39.80
1337;DHT22;662;48.814;9.318;2023-03-14T15:11:27;12.40;40.10
1337;DHT22;662;48.814;9.318;2023-03-14T15:13:53;12.50;40.10
1337;DHT22;662;48.814;9.318;2023-03-14T15:16:27;12.50;39.80
1337;DHT22;662;48.814;9.318;2023-03-14T15:18:55;12.50;40.00
1337;DHT22;662;48.814;9.318;2023-03-14T15:21:22;12.60;39.80
1337;DHT22;662;48.814;9.318;2023-03-14T15:23:47;12.60;39.60
1337;DHT22;662;48.814;9.318;2023-03-14T15:26:16;12.70;39.40
1337;DHT22;662;48.814;9.318;2023-03-14T15:28:42;12.80;39.70
1337;DHT22;662;48.814;9.318;2023-03-14T15:31:09;12.80;39.80
1337;DHT22;662;48.814;9.318;2023-03-14T15:33:35;12.80;39.60
1337;DHT22;662;48.814;9.318;2023-03-14T15:36:01;12.80;39.50
1337;DHT22;662;48.814;9.318;2023-03-14T15:38:27;12.90;40.00
1337;DHT22;662;48.814;9.318;2023-03-14T15:40:54;12.90;39.50
1337;DHT22;662;48.814;9.318;2023-03-14T15:43:20;12.80;39.30
1337;DHT22;662;48.814;9.318;2023-03-14T15:45:46;12.80;39.70
1337;DHT22;662;48.814;9.318;2023-03-14T15:48:15;12.80;39.90
1337;DHT22;662;48.814;9.318;2023-03-14T15:50:41;12.70;39.70
1337;DHT22;662;48.814;9.318;2023-03-14T15:53:07;12.60;39.70
1337;DHT22;662;48.814;9.318;2023-03-14T15:55:33;12.50;40.10
1337;DHT22;662;48.814;9.318;2023-03-14T15:57:58;12.50;40.60
1337;DHT22;662;48.814;9.318;2023-03-14T16:00:25;12.40;40.70
1337;DHT22;662;48.814;9.318;2023-03-14T16:02:51;12.30;40.70
1337;DHT22;662;48.814;9.318;2023-03-14T16:05:17;12.30;41.10
1337;DHT22;662;48.814;9.318;2023-03-14T16:07:44;12.20;41.20
1337;DHT22;662;48.814;9.318;2023-03-14T16:10:11;12.20;41.30
1337;DHT22;662;48.814;9.318;2023-03-14T16:12:38;12.10;41.40
1337;DHT22;662;48.814;9.318;2023-03-14T16:15:05;12.10;41.30
1337;DHT22;662;48.814;9.318;2023-03-14T16:17:34;12.10;41.50
1337;DHT22;662;48.814;9.318;2023-03-14T16:20:04;12.00;41.40
1337;DHT22;662;48.814;9.318;2023-03-14T16:22:30;11.90;41.50
1337;DHT22;662;48.814;9.318;2023-03-14T16:25:01;11.90;42.00
1337;DHT22;662;48.814;9.318;2023-03-14T16:27:27;11.90;41.90
1337;DHT22;662;48.814;9.318;2023-03-14T16:29:52;11.90;42.10
1337;DHT22;662;48.814;9.318;2023-03-14T16:32:18;11.80;42.10
1337;DHT22;662;48.814;9.318;2023-03-14T16:34:44;11.80;42.20
1337;DHT22;662;48.814;9.318;2023-03-14T16:37:09;11.80;42.50
1337;DHT22;662;48.814;9.318;2023-03-14T16:39:35;11.70;42.50
1337;DHT22;662;48.814;9.318;2023-03-14T16:42:00;11.70;42.60
1337;DHT22;662;48.814;9.318;2023-03-14T16:44:26;11.70;42.80
1337;DHT22;662;48.814;9.318;2023-03-14T16:46:52;11.60;42.80
1337;DHT22;662;48.814;9.318;2023-03-14T16:49:17;11.60;43.30
1337;DHT22;662;48.814;9.318;2023-03-14T16:51:44;11.60;43.40
1337;DHT22;662;48.814;9.318;2023-03-14T16:54:10;11.60;43.40
1337;DHT22;662;48.814;9.318;2023-03-14T16:56:35;11.50;43.50
1337;DHT22;662;48.814;9.318;2023-03-14T16:59:01;11.50;43.50
1337;DHT22;662;48.814;9.318;2023-03-14T17:01:27;11.60;43.70
1337;DHT22;662;48.814;9.318;2023-03-14T17:03:52;11.50;43.70
1337;DHT22;662;48.814;9.318;2023-03-14T17:06:23;11.50;43.70
1337;DHT22;662;48.814;9.318;2023-03-14T17:08:49;11.50;43.90
1337;DHT22;662;48.814;9.318;2023-03-14T17:11:15;11.50;44.00
1337;DHT22;662;48.814;9.318;2023-03-14T17:13:41;11.50;44.10
1337;DHT22;662;48.814;9.318;2023-03-14T17:16:07;11.50;44.20
1337;DHT22;662;48.814;9.318;2023-03-14T17:18:35;11.50;45.00